createdAt,value
2019-05-17T00:02:13.534Z,10.40
2019-05-17T00:04:40.277Z,10.40
2019-05-17T00:07:07.058Z,10.40
2019-05-17T00:09:33.988Z,10.40
2019-05-17T00:12:00.729Z,10.30
2019-05-17T00:14:27.408Z,10.30
2019-05-17T00:16:54.156Z,10.30
2019-05-17T00:19:20.902Z,10.30
2019-05-17T00:21:47.664Z,10.40
2019-05-17T00:24:15.394Z,10.30
2019-05-17T00:26:42.137Z,10.30
2019-05-17T00:29:08.899Z,10.20
2019-05-17T00:31:36.958Z,10.30
2019-05-17T00:34:03.874Z,10.20
2019-05-17T00:36:30.664Z,10.20
2019-05-17T00:38:57.411Z,10.20
2019-05-17T00:41:26.722Z,10.30
2019-05-17T00:43:52.825Z,10.20
2019-05-17T00:46:20.581Z,10.20
2019-05-17T00:48:47.244Z,10.20
2019-05-17T00:51:14.030Z,10.20
2019-05-17T00:53:40.835Z,10.20
2019-05-17T00:56:07.484Z,10.20
2019-05-17T00:58:34.243Z,10.30
2019-05-17T01:01:00.976Z,10.30
2019-05-17T01:03:27.763Z,10.30
2019-05-17T01:05:56.679Z,10.30
2019-05-17T01:08:23.108Z,10.20
2019-05-17T01:10:49.890Z,10.20
2019-05-17T01:13:17.261Z,10.20
2019-05-17T01:15:44.287Z,10.20
2019-05-17T01:18:11.333Z,10.10
2019-05-17T01:20:38.111Z,10.10
2019-05-17T01:23:07.283Z,10.10
2019-05-17T01:25:36.686Z,10.10
2019-05-17T01:28:03.090Z,10.10
2019-05-17T01:30:29.998Z,10.00
2019-05-17T01:32:57.142Z,9.90
2019-05-17T01:35:26.218Z,10.00
2019-05-17T01:37:52.498Z,10.00
2019-05-17T01:40:19.158Z,9.90
2019-05-17T01:42:46.617Z,10.00
2019-05-17T01:45:16.441Z,10.00
2019-05-17T01:47:42.608Z,9.90
2019-05-17T01:50:09.811Z,9.90
2019-05-17T01:52:37.103Z,9.90
2019-05-17T01:55:06.592Z,9.90
2019-05-17T01:57:33.515Z,9.90
2019-05-17T02:00:01.593Z,9.90
2019-05-17T02:05:18.758Z,9.80
2019-05-17T02:08:06.411Z,9.80
2019-05-17T02:10:32.286Z,9.90
2019-05-17T02:12:59.086Z,9.80
2019-05-17T02:15:26.756Z,9.80
2019-05-17T02:17:53.712Z,9.80
2019-05-17T02:20:20.615Z,9.80
2019-05-17T02:22:47.645Z,9.80
2019-05-17T02:25:16.760Z,9.80
2019-05-17T02:27:44.755Z,9.80
2019-05-17T02:30:14.343Z,9.80
2019-05-17T02:32:43.168Z,9.80
2019-05-17T02:35:13.814Z,9.80
2019-05-17T02:37:38.943Z,9.80
2019-05-17T02:40:08.386Z,9.80
2019-05-17T02:42:34.614Z,9.80
2019-05-17T02:45:03.001Z,9.70
2019-05-17T02:47:33.336Z,9.70
2019-05-17T02:49:58.823Z,9.70
2019-05-17T02:52:25.503Z,9.70
2019-05-17T02:54:52.759Z,9.80
2019-05-17T02:57:22.941Z,9.80
2019-05-17T02:59:48.282Z,9.80
2019-05-17T03:02:15.037Z,9.70
2019-05-17T03:04:43.299Z,9.60
2019-05-17T03:07:13.400Z,9.70
2019-05-17T03:09:38.753Z,9.60
2019-05-17T03:12:05.607Z,9.60
2019-05-17T03:14:32.943Z,9.50
2019-05-17T03:17:02.935Z,9.40
2019-05-17T03:19:28.690Z,9.50
2019-05-17T03:21:55.557Z,9.50
2019-05-17T03:24:22.734Z,9.50
2019-05-17T03:26:52.551Z,9.40
2019-05-17T03:29:18.383Z,9.30
2019-05-17T03:31:53.580Z,9.30
2019-05-17T03:34:16.995Z,9.30
2019-05-17T03:36:46.918Z,9.20
2019-05-17T03:39:12.970Z,9.20
2019-05-17T03:41:42.665Z,9.10
2019-05-17T03:44:09.389Z,9.00
2019-05-17T03:46:36.019Z,8.90
2019-05-17T03:49:04.027Z,8.90
2019-05-17T03:51:33.269Z,8.80
2019-05-17T03:54:02.145Z,8.80
2019-05-17T03:56:28.200Z,8.70
2019-05-17T03:58:54.973Z,8.70
2019-05-17T04:01:23.154Z,8.70
2019-05-17T04:03:52.742Z,8.60
2019-05-17T04:06:18.871Z,8.40
2019-05-17T04:08:45.643Z,8.40
2019-05-17T04:11:22.094Z,8.40
2019-05-17T04:13:42.993Z,8.40
2019-05-17T04:16:10.524Z,8.40
2019-05-17T04:18:37.832Z,8.40
2019-05-17T04:21:04.620Z,8.40
2019-05-17T04:23:33.829Z,8.40
2019-05-17T04:26:03.795Z,8.40
2019-05-17T04:28:29.035Z,8.40
2019-05-17T04:30:55.999Z,8.40
2019-05-17T04:33:23.485Z,8.50
2019-05-17T04:35:53.791Z,8.50
2019-05-17T04:38:18.991Z,8.50
2019-05-17T04:40:45.697Z,8.50
2019-05-17T04:43:13.557Z,8.50
2019-05-17T04:45:42.584Z,8.50
2019-05-17T04:48:09.316Z,8.70
2019-05-17T04:50:36.197Z,8.80
2019-05-17T04:53:03.217Z,8.90
2019-05-17T04:55:33.795Z,8.90
2019-05-17T04:57:58.926Z,8.90
2019-05-17T05:00:25.756Z,9.00
2019-05-17T05:02:52.875Z,9.00
2019-05-17T05:05:22.441Z,9.00
2019-05-17T05:07:48.313Z,9.00
2019-05-17T05:10:15.034Z,9.00
2019-05-17T05:12:43.575Z,9.00
2019-05-17T05:15:12.270Z,9.10
2019-05-17T05:17:39.127Z,9.20
2019-05-17T05:20:07.113Z,9.30
2019-05-17T05:22:34.080Z,9.40
2019-05-17T05:25:02.174Z,9.40
2019-05-17T05:27:31.512Z,9.50
2019-05-17T05:29:57.738Z,9.60
2019-05-17T05:32:24.504Z,9.70
2019-05-17T05:34:52.002Z,9.70
2019-05-17T05:37:20.894Z,9.90
2019-05-17T05:39:47.580Z,10.00
2019-05-17T05:42:14.257Z,10.20
2019-05-17T05:44:41.599Z,10.20
2019-05-17T05:47:11.480Z,10.20
2019-05-17T05:49:38.229Z,10.40
2019-05-17T05:52:05.029Z,10.50
2019-05-17T05:54:32.809Z,10.40
2019-05-17T05:57:02.074Z,10.50
2019-05-17T05:59:28.112Z,10.60
2019-05-17T06:01:55.015Z,10.80
2019-05-17T06:04:22.370Z,11.00
2019-05-17T06:06:49.101Z,11.10
2019-05-17T06:09:15.798Z,11.40
2019-05-17T06:11:42.518Z,11.40
2019-05-17T06:14:09.307Z,11.30
2019-05-17T06:16:36.063Z,11.50
2019-05-17T06:19:02.722Z,11.60
2019-05-17T06:21:31.792Z,11.50
2019-05-17T06:23:58.174Z,11.30
2019-05-17T06:26:24.821Z,11.40
2019-05-17T06:28:51.899Z,11.50
2019-05-17T06:31:18.574Z,11.70
2019-05-17T06:33:45.239Z,11.90
2019-05-17T06:36:13.714Z,11.80
2019-05-17T06:38:42.052Z,11.70
2019-05-17T06:41:09.111Z,11.60
2019-05-17T06:43:38.394Z,11.40
2019-05-17T06:46:04.437Z,11.40
2019-05-17T06:48:31.853Z,11.50
2019-05-17T06:50:58.943Z,11.60
2019-05-17T06:53:25.630Z,11.70
2019-05-17T06:55:53.468Z,11.80
2019-05-17T06:58:22.179Z,11.70
2019-05-17T07:00:49.786Z,11.90
2019-05-17T07:03:16.618Z,12.40
2019-05-17T07:05:50.109Z,12.70
2019-05-17T07:08:17.419Z,12.40
2019-05-17T07:10:44.186Z,12.30
2019-05-17T07:13:11.973Z,12.40
2019-05-17T07:15:46.809Z,12.50
2019-05-17T07:18:10.039Z,12.30
2019-05-17T07:20:36.343Z,12.10
2019-05-17T07:23:03.140Z,12.20
2019-05-17T07:25:30.332Z,12.30
2019-05-17T07:27:57.256Z,12.30
2019-05-17T07:30:24.087Z,12.40
2019-05-17T07:32:50.875Z,12.20
2019-05-17T07:35:19.716Z,12.20
2019-05-17T07:37:46.422Z,12.30
2019-05-17T07:40:14.512Z,12.10
2019-05-17T07:42:41.572Z,12.00
2019-05-17T07:45:10.176Z,12.00
2019-05-17T07:47:37.210Z,11.80
2019-05-17T07:50:04.983Z,11.90
2019-05-17T07:52:31.853Z,12.10
2019-05-17T07:55:02.442Z,12.00
2019-05-17T07:57:27.239Z,12.10
2019-05-17T07:59:55.113Z,12.00
2019-05-17T08:02:21.884Z,12.20
2019-05-17T08:04:50.106Z,12.40
2019-05-17T08:07:19.533Z,12.60
2019-05-17T08:09:45.738Z,12.40
2019-05-17T08:12:12.508Z,12.50
2019-05-17T08:14:40.012Z,12.50
2019-05-17T08:17:07.073Z,12.60
2019-05-17T08:19:34.025Z,12.70
2019-05-17T08:22:00.781Z,13.10
2019-05-17T08:24:27.542Z,13.30
2019-05-17T08:26:54.296Z,13.70
2019-05-17T08:29:21.287Z,13.90
2019-05-17T08:31:49.703Z,13.90
2019-05-17T08:34:19.753Z,13.60
2019-05-17T08:36:45.113Z,13.50
2019-05-17T08:39:12.036Z,13.60
2019-05-17T08:41:40.490Z,13.60
2019-05-17T08:44:09.895Z,13.70
2019-05-17T08:46:36.012Z,14.10
2019-05-17T08:49:03.773Z,14.20
2019-05-17T08:51:30.699Z,14.20
2019-05-17T08:53:59.847Z,14.20
2019-05-17T08:56:26.034Z,13.90
2019-05-17T08:58:52.834Z,14.00
2019-05-17T09:01:19.807Z,14.20
2019-05-17T09:03:46.602Z,14.40
2019-05-17T09:06:13.369Z,14.40
2019-05-17T09:08:40.532Z,14.50
2019-05-17T09:11:09.775Z,14.80
2019-05-17T09:13:40.018Z,14.90
2019-05-17T09:16:04.892Z,14.60
2019-05-17T09:18:31.568Z,14.70
2019-05-17T09:21:00.375Z,14.50
2019-05-17T09:23:27.074Z,14.80
2019-05-17T09:25:53.640Z,15.10
2019-05-17T09:28:20.609Z,15.40
2019-05-17T09:30:47.496Z,14.80
2019-05-17T09:33:14.236Z,14.80
2019-05-17T09:35:41.248Z,15.00
2019-05-17T09:38:10.098Z,15.60
2019-05-17T09:40:39.896Z,15.70
2019-05-17T09:43:06.826Z,16.20
2019-05-17T09:45:33.669Z,15.50
2019-05-17T09:48:00.788Z,15.20
2019-05-17T09:50:29.389Z,15.50
2019-05-17T09:52:56.344Z,15.20
2019-05-17T09:55:23.379Z,15.30
2019-05-17T09:57:50.258Z,15.60
2019-05-17T10:00:17.422Z,15.70
2019-05-17T10:02:44.193Z,15.50
2019-05-17T10:05:11.134Z,15.10
2019-05-17T10:07:40.257Z,15.40
2019-05-17T10:10:06.784Z,15.20
2019-05-17T10:12:33.640Z,15.00
2019-05-17T10:15:00.626Z,15.20
2019-05-17T10:17:29.458Z,15.80
2019-05-17T10:19:56.214Z,15.50
2019-05-17T10:22:22.934Z,15.90
2019-05-17T10:24:49.819Z,15.90
2019-05-17T10:27:16.642Z,15.80
2019-05-17T10:29:43.444Z,15.80
2019-05-17T10:32:10.601Z,15.80
2019-05-17T10:34:37.414Z,15.60
2019-05-17T10:37:04.200Z,15.60
2019-05-17T10:39:30.944Z,16.20
2019-05-17T10:41:57.717Z,15.70
2019-05-17T10:44:24.504Z,16.20
2019-05-17T10:46:51.297Z,16.80
2019-05-17T10:49:20.097Z,16.80
2019-05-17T10:51:46.569Z,16.80
2019-05-17T10:54:13.348Z,16.80
2019-05-17T10:56:40.156Z,16.60
2019-05-17T10:59:09.658Z,16.50
2019-05-17T11:01:35.928Z,15.70
2019-05-17T11:04:02.769Z,16.00
2019-05-17T11:06:30.207Z,16.30
2019-05-17T11:08:59.507Z,16.30
2019-05-17T11:11:26.036Z,16.20
2019-05-17T11:13:53.173Z,16.60
2019-05-17T11:16:19.866Z,16.50
2019-05-17T11:18:48.519Z,16.50
2019-05-17T11:21:19.946Z,16.80
2019-05-17T11:23:46.660Z,16.70
2019-05-17T11:26:13.440Z,16.20
2019-05-17T11:28:40.344Z,16.10
2019-05-17T11:31:07.191Z,16.20
2019-05-17T11:33:33.954Z,16.40
2019-05-17T11:36:00.751Z,16.30
2019-05-17T11:38:27.320Z,16.60
2019-05-17T11:40:54.203Z,16.60
2019-05-17T11:43:20.983Z,16.80
2019-05-17T11:45:47.756Z,17.30
2019-05-17T11:48:15.503Z,17.20
2019-05-17T11:50:42.277Z,16.70
2019-05-17T11:53:10.846Z,16.60
2019-05-17T11:55:37.577Z,16.60
2019-05-17T11:58:13.208Z,16.60
2019-05-17T12:00:59.179Z,16.30
2019-05-17T12:03:31.320Z,16.10
2019-05-17T12:06:09.742Z,15.90
2019-05-17T12:09:18.907Z,15.70
2019-05-17T12:15:00.205Z,16.00
2019-05-17T12:17:25.247Z,16.40
2019-05-17T12:20:10.732Z,17.00
2019-05-17T12:22:47.846Z,17.00
2019-05-17T12:25:21.143Z,17.50
2019-05-17T12:31:47.658Z,16.80
2019-05-17T12:34:25.404Z,16.60
2019-05-17T12:37:17.921Z,16.80
2019-05-17T12:43:30.603Z,17.10
2019-05-17T12:49:27.739Z,17.50
2019-05-17T12:58:35.906Z,16.90
2019-05-17T12:58:43.067Z,16.90
2019-05-17T13:09:00.813Z,16.80
2019-05-17T13:10:35.920Z,16.60
2019-05-17T13:13:32.431Z,17.20
2019-05-17T13:16:16.751Z,17.60
2019-05-17T13:18:55.869Z,17.00
2019-05-17T13:21:31.943Z,16.90
2019-05-17T13:23:55.595Z,16.30
2019-05-17T13:26:22.369Z,16.70
2019-05-17T13:28:49.270Z,16.80
2019-05-17T13:31:16.118Z,17.10
2019-05-17T13:33:42.880Z,16.90
2019-05-17T13:36:09.864Z,16.70
2019-05-17T13:38:37.794Z,16.80
2019-05-17T13:41:04.569Z,17.30
2019-05-17T13:43:31.450Z,17.20
2019-05-17T13:45:58.384Z,17.80
2019-05-17T13:48:25.359Z,18.20
2019-05-17T13:50:52.468Z,18.20
2019-05-17T13:53:19.312Z,17.70
2019-05-17T13:55:46.191Z,17.50
2019-05-17T13:58:13.072Z,17.40
2019-05-17T14:00:39.979Z,17.00
2019-05-17T14:03:06.799Z,17.10
2019-05-17T14:05:33.612Z,16.90
2019-05-17T14:08:00.525Z,17.00
2019-05-17T14:10:31.525Z,17.00
2019-05-17T14:12:56.273Z,16.90
2019-05-17T14:15:23.295Z,16.80
2019-05-17T14:17:50.213Z,16.90
2019-05-17T14:20:16.962Z,16.40
2019-05-17T14:22:43.885Z,16.30
2019-05-17T14:25:10.762Z,16.40
2019-05-17T14:27:37.644Z,16.40
2019-05-17T14:30:05.426Z,16.50
2019-05-17T14:32:32.590Z,16.30
2019-05-17T14:34:59.273Z,16.40
2019-05-17T14:37:26.083Z,16.40
2019-05-17T14:39:53.098Z,16.60
2019-05-17T14:42:20.744Z,16.70
2019-05-17T14:44:47.532Z,16.40
2019-05-17T14:47:14.349Z,16.10
2019-05-17T14:49:41.227Z,16.10
2019-05-17T14:52:08.620Z,16.10
2019-05-17T14:54:35.377Z,16.30
2019-05-17T14:57:02.235Z,16.00
2019-05-17T14:59:29.188Z,16.30
2019-05-17T15:01:55.948Z,16.40
2019-05-17T15:04:22.766Z,16.40
2019-05-17T15:06:51.481Z,16.60
2019-05-17T15:09:32.725Z,16.50
2019-05-17T15:13:36.812Z,16.60
2019-05-17T15:15:07.809Z,16.90
2019-05-17T15:17:27.455Z,16.70
2019-05-17T15:20:29.313Z,16.50
2019-05-17T15:23:17.064Z,16.50
2019-05-17T15:26:39.024Z,16.10
2019-05-17T15:28:41.601Z,16.20
2019-05-17T15:31:30.513Z,16.30
2019-05-17T15:46:52.972Z,15.80
2019-05-17T15:49:19.800Z,15.90
2019-05-17T15:51:46.650Z,15.80
2019-05-17T15:54:13.556Z,16.00
2019-05-17T15:56:40.469Z,15.90
2019-05-17T15:59:07.231Z,15.90
2019-05-17T16:01:34.034Z,15.70
2019-05-17T16:04:00.852Z,15.60
2019-05-17T16:06:27.720Z,15.60
2019-05-17T16:08:54.503Z,15.40
2019-05-17T16:11:21.367Z,15.60
2019-05-17T16:13:48.003Z,15.80
2019-05-17T16:16:14.963Z,15.80
2019-05-17T16:18:41.816Z,15.80
2019-05-17T16:21:08.501Z,15.80
2019-05-17T16:23:35.207Z,15.60
2019-05-17T16:26:02.347Z,15.70
2019-05-17T16:28:29.156Z,15.60
2019-05-17T16:30:55.777Z,15.50
2019-05-17T16:33:22.561Z,15.50
2019-05-17T16:35:49.378Z,15.50
2019-05-17T16:38:16.051Z,15.10
2019-05-17T16:40:42.760Z,15.10
2019-05-17T16:43:17.554Z,15.20
2019-05-17T16:45:38.009Z,15.30
2019-05-17T16:48:04.747Z,15.20
2019-05-17T16:50:31.555Z,15.30
2019-05-17T16:53:06.123Z,15.30
2019-05-17T16:55:26.845Z,15.30
2019-05-17T16:57:53.508Z,15.30
2019-05-17T17:00:38.284Z,15.20
2019-05-17T17:03:05.454Z,15.20
2019-05-17T17:05:32.231Z,15.20
2019-05-17T17:07:59.037Z,15.10
2019-05-17T17:10:25.797Z,15.00
2019-05-17T17:12:52.604Z,14.90
2019-05-17T17:15:19.663Z,14.90
2019-05-17T17:17:46.523Z,14.80
2019-05-17T17:20:13.436Z,14.90
2019-05-17T17:22:40.215Z,14.90
2019-05-17T17:25:07.398Z,14.80
2019-05-17T17:27:34.389Z,14.70
2019-05-17T17:30:01.611Z,14.70
2019-05-17T17:32:28.448Z,14.60
2019-05-17T17:34:55.503Z,14.50
2019-05-17T17:37:22.341Z,14.50
2019-05-17T17:39:49.189Z,14.40
2019-05-17T17:42:15.930Z,14.30
2019-05-17T17:44:42.775Z,14.30
2019-05-17T17:47:09.620Z,14.30
2019-05-17T17:49:36.542Z,14.30
2019-05-17T17:52:03.213Z,14.30
2019-05-17T17:54:29.919Z,14.30
2019-05-17T17:56:56.850Z,14.20
2019-05-17T17:59:23.629Z,14.20
2019-05-17T18:01:50.570Z,14.10
2019-05-17T18:04:17.446Z,14.00
2019-05-17T18:06:44.216Z,14.00
2019-05-17T18:09:11.059Z,14.00
2019-05-17T18:11:37.926Z,13.90
2019-05-17T18:14:13.016Z,13.90
2019-05-17T18:16:33.221Z,13.90
2019-05-17T18:19:00.011Z,13.90
2019-05-17T18:21:26.761Z,13.90
2019-05-17T18:23:53.488Z,13.80
2019-05-17T18:26:20.479Z,13.80
2019-05-17T18:28:47.458Z,13.80
2019-05-17T18:31:14.206Z,13.80
2019-05-17T18:33:41.042Z,13.80
2019-05-17T18:36:07.657Z,13.80
2019-05-17T18:38:34.703Z,13.60
2019-05-17T18:41:01.552Z,13.60
2019-05-17T18:43:28.424Z,13.60
2019-05-17T18:45:55.181Z,13.60
2019-05-17T18:48:22.204Z,13.50
2019-05-17T18:50:49.069Z,13.50
2019-05-17T18:53:16.958Z,13.50
2019-05-17T18:55:44.327Z,13.50
2019-05-17T18:58:11.288Z,13.50
2019-05-17T19:00:39.042Z,13.50
2019-05-17T19:03:05.809Z,13.50
2019-05-17T19:05:32.854Z,13.40
2019-05-17T19:07:59.615Z,13.30
2019-05-17T19:10:26.274Z,13.30
2019-05-17T19:12:53.048Z,13.30
2019-05-17T19:15:20.325Z,13.30
2019-05-17T19:17:47.099Z,13.30
2019-05-17T19:20:14.256Z,13.20
2019-05-17T19:22:41.306Z,13.20
2019-05-17T19:25:09.130Z,13.10
2019-05-17T19:27:35.855Z,13.20
2019-05-17T19:30:04.963Z,13.20
2019-05-17T19:32:31.942Z,13.10
2019-05-17T19:34:58.602Z,13.10
2019-05-17T19:37:25.348Z,13.10
2019-05-17T19:39:52.007Z,13.00
2019-05-17T19:42:18.664Z,13.00
2019-05-17T19:44:57.917Z,13.00
2019-05-17T19:47:14.122Z,13.00
2019-05-17T19:49:40.935Z,13.00
2019-05-17T19:52:07.717Z,12.90
2019-05-17T19:54:35.571Z,12.90
2019-05-17T19:57:02.249Z,12.90
2019-05-17T19:59:28.937Z,12.90
2019-05-17T20:01:55.660Z,12.80
2019-05-17T20:04:22.533Z,12.80
2019-05-17T20:06:49.443Z,12.80
2019-05-17T20:09:16.384Z,12.70
2019-05-17T20:11:43.152Z,12.70
2019-05-17T20:14:09.936Z,12.60
2019-05-17T20:16:36.705Z,12.70
2019-05-17T20:19:03.647Z,12.70
2019-05-17T20:21:30.394Z,12.70
2019-05-17T20:23:57.154Z,12.60
2019-05-17T20:26:23.922Z,12.60
2019-05-17T20:28:50.793Z,12.50
2019-05-17T20:31:17.559Z,12.50
2019-05-17T20:33:44.433Z,12.50
2019-05-17T20:36:11.313Z,12.60
2019-05-17T20:38:38.108Z,12.50
2019-05-17T20:41:04.878Z,12.50
2019-05-17T20:43:31.786Z,12.60
2019-05-17T20:45:58.472Z,12.50
2019-05-17T20:48:26.080Z,12.50
2019-05-17T20:50:52.906Z,12.50
2019-05-17T20:53:20.814Z,12.50
2019-05-17T20:55:47.565Z,12.50
2019-05-17T20:58:14.325Z,12.50
2019-05-17T21:00:41.107Z,12.50
2019-05-17T21:03:07.972Z,12.50
2019-05-17T21:05:34.766Z,12.50
2019-05-17T21:08:01.591Z,12.40
2019-05-17T21:10:28.235Z,12.40
2019-05-17T21:12:54.977Z,12.40
2019-05-17T21:15:21.651Z,12.40
2019-05-17T21:17:48.326Z,12.40
2019-05-17T21:20:15.523Z,12.40
2019-05-17T21:22:42.403Z,12.30
2019-05-17T21:25:09.365Z,12.30
2019-05-17T21:27:36.149Z,12.30
2019-05-17T21:30:06.426Z,12.30
2019-05-17T21:32:33.206Z,12.20
2019-05-17T21:34:59.951Z,12.30
2019-05-17T21:37:26.723Z,12.20
2019-05-17T21:39:53.390Z,12.30
2019-05-17T21:42:20.267Z,12.20
2019-05-17T21:44:47.081Z,12.30
2019-05-17T21:47:13.800Z,12.20
2019-05-17T21:49:42.398Z,12.20
2019-05-17T21:52:09.066Z,12.30
2019-05-17T21:54:35.808Z,12.20
2019-05-17T21:57:02.610Z,12.20
2019-05-17T21:59:29.262Z,12.20
2019-05-17T22:01:56.606Z,12.10
2019-05-17T22:04:26.495Z,12.20
2019-05-17T22:06:52.128Z,12.20
2019-05-17T22:09:19.166Z,12.10
2019-05-17T22:11:47.805Z,12.10
2019-05-17T22:14:14.572Z,12.10
2019-05-17T22:16:41.823Z,12.10
2019-05-17T22:19:08.644Z,12.10
2019-05-17T22:21:35.605Z,12.10
2019-05-17T22:24:02.542Z,12.10
2019-05-17T22:26:29.312Z,12.10
2019-05-17T22:28:57.086Z,12.10
2019-05-17T22:31:23.936Z,12.10
2019-05-17T22:33:50.630Z,12.10
2019-05-17T22:36:17.381Z,12.10
2019-05-17T22:38:44.148Z,12.10
2019-05-17T22:41:10.924Z,12.00
2019-05-17T22:43:37.696Z,12.10
2019-05-17T22:46:04.576Z,12.10
2019-05-17T22:48:31.381Z,12.10
2019-05-17T22:50:58.272Z,12.00
2019-05-17T22:53:26.417Z,12.00
2019-05-17T22:55:53.108Z,12.00
2019-05-17T22:58:19.861Z,12.00
2019-05-17T23:00:46.739Z,12.00
2019-05-17T23:03:13.538Z,11.90
2019-05-17T23:05:40.516Z,11.80
2019-05-17T23:08:07.282Z,11.90
2019-05-17T23:10:35.139Z,11.80
2019-05-17T23:13:03.046Z,11.80
2019-05-17T23:15:31.611Z,11.90
2019-05-17T23:17:58.339Z,11.90
2019-05-17T23:20:25.085Z,11.70
2019-05-17T23:22:51.834Z,11.70
2019-05-17T23:25:18.817Z,11.70
2019-05-17T23:27:45.430Z,11.70
2019-05-17T23:30:12.460Z,11.70
2019-05-17T23:32:39.383Z,11.60
2019-05-17T23:35:06.276Z,11.70
2019-05-17T23:37:33.038Z,11.70
2019-05-17T23:39:59.853Z,11.70
2019-05-17T23:42:26.583Z,11.70
2019-05-17T23:44:53.318Z,11.60
2019-05-17T23:47:19.987Z,11.50
2019-05-17T23:49:46.884Z,11.40
2019-05-17T23:52:13.649Z,11.30
2019-05-17T23:54:40.487Z,11.30
2019-05-17T23:57:07.239Z,11.20
2019-05-17T23:59:33.990Z,11.10
